sensor_id;sensor_type;location;lat;lon;timestamp;P1;durP1;ratioP1;P2;durP2;ratioP2
25637;SDS011;13496;51.040;13.680;2023-05-20T00:05:02;2.97;;;2.78;;
25637;SDS011;13496;51.040;13.680;2023-05-20T00:10:04;3.13;;;2.83;;
25637;SDS011;13496;51.040;13.680;2023-05-20T00:15:06;3.08;;;2.78;;
25637;SDS011;13496;51.040;13.680;2023-05-20T00:20:08;3.10;;;2.80;;
25637;SDS011;13496;51.040;13.680;2023-05-20T00:25:10;2.88;;;2.67;;
25637;SDS011;13496;51.040;13.680;2023-05-20T00:30:14;3.17;;;2.88;;
25637;SDS011;13496;51.040;13.680;2023-05-20T00:35:16;2.50;;;2.30;;
25637;SDS011;13496;51.040;13.680;2023-05-20T00:40:18;2.70;;;2.50;;
25637;SDS011;13496;51.040;13.680;2023-05-20T00:45:21;3.45;;;3.15;;
25637;SDS011;13496;51.040;13.680;2023-05-20T00:50:23;2.85;;;2.65;;
25637;SDS011;13496;51.040;13.680;2023-05-20T00:55:24;3.40;;;2.70;;
25637;SDS011;13496;51.040;13.680;2023-05-20T01:00:26;3.08;;;2.78;;
25637;SDS011;13496;51.040;13.680;2023-05-20T01:05:28;3.17;;;2.88;;
25637;SDS011;13496;51.040;13.680;2023-05-20T01:10:30;3.03;;;2.83;;
25637;SDS011;13496;51.040;13.680;2023-05-20T01:15:33;2.90;;;2.70;;
25637;SDS011;13496;51.040;13.680;2023-05-20T01:20:35;4.15;;;3.20;;
25637;SDS011;13496;51.040;13.680;2023-05-20T01:25:38;2.80;;;2.60;;
25637;SDS011;13496;51.040;13.680;2023-05-20T01:30:41;3.22;;;2.92;;
25637;SDS011;13496;51.040;13.680;2023-05-20T01:35:50;3.35;;;3.05;;
25637;SDS011;13496;51.040;13.680;2023-05-20T01:40:53;3.35;;;3.15;;
25637;SDS011;13496;51.040;13.680;2023-05-20T01:45:55;3.45;;;3.15;;
25637;SDS011;13496;51.040;13.680;2023-05-20T01:50:57;3.50;;;3.20;;
25637;SDS011;13496;51.040;13.680;2023-05-20T01:55:58;3.13;;;2.90;;
25637;SDS011;13496;51.040;13.680;2023-05-20T02:01:01;3.38;;;3.08;;
25637;SDS011;13496;51.040;13.680;2023-05-20T02:06:05;3.58;;;3.20;;
25637;SDS011;13496;51.040;13.680;2023-05-20T02:11:07;3.45;;;3.15;;
25637;SDS011;13496;51.040;13.680;2023-05-20T02:16:08;3.05;;;2.83;;
25637;SDS011;13496;51.040;13.680;2023-05-20T02:21:10;2.90;;;2.70;;
25637;SDS011;13496;51.040;13.680;2023-05-20T02:26:12;3.10;;;2.90;;
25637;SDS011;13496;51.040;13.680;2023-05-20T02:31:14;2.78;;;2.58;;
25637;SDS011;13496;51.040;13.680;2023-05-20T02:36:16;3.53;;;3.22;;
25637;SDS011;13496;51.040;13.680;2023-05-20T02:41:18;3.65;;;3.35;;
25637;SDS011;13496;51.040;13.680;2023-05-20T02:46:19;3.50;;;3.20;;
25637;SDS011;13496;51.040;13.680;2023-05-20T02:51:22;3.22;;;2.97;;
25637;SDS011;13496;51.040;13.680;2023-05-20T02:56:24;3.50;;;3.20;;
25637;SDS011;13496;51.040;13.680;2023-05-20T03:01:27;3.17;;;2.97;;
25637;SDS011;13496;51.040;13.680;2023-05-20T03:06:29;3.47;;;3.17;;
25637;SDS011;13496;51.040;13.680;2023-05-20T03:11:32;3.50;;;3.28;;
25637;SDS011;13496;51.040;13.680;2023-05-20T03:16:33;3.60;;;3.30;;
25637;SDS011;13496;51.040;13.680;2023-05-20T03:21:35;3.50;;;3.20;;
25637;SDS011;13496;51.040;13.680;2023-05-20T03:26:37;3.30;;;3.00;;
25637;SDS011;13496;51.040;13.680;2023-05-20T03:31:43;3.45;;;3.20;;
25637;SDS011;13496;51.040;13.680;2023-05-20T03:36:45;3.38;;;3.08;;
25637;SDS011;13496;51.040;13.680;2023-05-20T03:41:47;3.50;;;3.20;;
25637;SDS011;13496;51.040;13.680;2023-05-20T03:46:49;3.63;;;3.33;;
25637;SDS011;13496;51.040;13.680;2023-05-20T03:51:51;3.63;;;3.33;;
25637;SDS011;13496;51.040;13.680;2023-05-20T03:56:53;3.45;;;3.15;;
25637;SDS011;13496;51.040;13.680;2023-05-20T04:01:55;3.40;;;3.10;;
25637;SDS011;13496;51.040;13.680;2023-05-20T04:06:57;3.47;;;3.17;;
25637;SDS011;13496;51.040;13.680;2023-05-20T04:12:04;3.83;;;3.53;;
25637;SDS011;13496;51.040;13.680;2023-05-20T04:17:06;3.90;;;3.60;;
25637;SDS011;13496;51.040;13.680;2023-05-20T04:22:08;3.17;;;2.97;;
25637;SDS011;13496;51.040;13.680;2023-05-20T04:27:10;3.67;;;3.38;;
25637;SDS011;13496;51.040;13.680;2023-05-20T04:32:12;3.85;;;3.55;;
25637;SDS011;13496;51.040;13.680;2023-05-20T04:37:14;3.42;;;3.15;;
25637;SDS011;13496;51.040;13.680;2023-05-20T04:42:16;3.55;;;3.30;;
25637;SDS011;13496;51.040;13.680;2023-05-20T04:47:19;3.90;;;3.60;;
25637;SDS011;13496;51.040;13.680;2023-05-20T04:52:21;4.00;;;3.70;;
25637;SDS011;13496;51.040;13.680;2023-05-20T04:57:22;3.70;;;3.40;;
25637;SDS011;13496;51.040;13.680;2023-05-20T05:02:25;3.90;;;3.60;;
25637;SDS011;13496;51.040;13.680;2023-05-20T05:07:28;4.40;;;4.00;;
25637;SDS011;13496;51.040;13.680;2023-05-20T05:12:31;4.20;;;3.90;;
25637;SDS011;13496;51.040;13.680;2023-05-20T05:17:34;4.07;;;3.78;;
25637;SDS011;13496;51.040;13.680;2023-05-20T05:22:36;3.80;;;3.50;;
25637;SDS011;13496;51.040;13.680;2023-05-20T05:27:40;3.70;;;3.40;;
25637;SDS011;13496;51.040;13.680;2023-05-20T05:32:42;3.78;;;3.47;;
25637;SDS011;13496;51.040;13.680;2023-05-20T05:37:44;3.85;;;3.55;;
25637;SDS011;13496;51.040;13.680;2023-05-20T05:42:46;3.65;;;3.35;;
25637;SDS011;13496;51.040;13.680;2023-05-20T05:47:48;4.10;;;3.70;;
25637;SDS011;13496;51.040;13.680;2023-05-20T05:52:50;3.70;;;3.40;;
25637;SDS011;13496;51.040;13.680;2023-05-20T05:57:52;3.75;;;3.45;;
25637;SDS011;13496;51.040;13.680;2023-05-20T06:02:54;3.50;;;3.30;;
25637;SDS011;13496;51.040;13.680;2023-05-20T06:08:05;3.67;;;3.42;;
25637;SDS011;13496;51.040;13.680;2023-05-20T06:13:09;4.15;;;3.85;;
25637;SDS011;13496;51.040;13.680;2023-05-20T06:18:11;3.53;;;3.33;;
25637;SDS011;13496;51.040;13.680;2023-05-20T06:23:14;3.67;;;3.42;;
25637;SDS011;13496;51.040;13.680;2023-05-20T06:28:26;4.07;;;3.78;;
25637;SDS011;13496;51.040;13.680;2023-05-20T06:33:28;3.72;;;3.45;;
25637;SDS011;13496;51.040;13.680;2023-05-20T06:38:33;4.25;;;3.95;;
25637;SDS011;13496;51.040;13.680;2023-05-20T06:43:35;3.63;;;3.33;;
25637;SDS011;13496;51.040;13.680;2023-05-20T06:48:45;4.15;;;3.80;;
25637;SDS011;13496;51.040;13.680;2023-05-20T06:53:47;4.30;;;4.00;;
25637;SDS011;13496;51.040;13.680;2023-05-20T06:58:49;4.28;;;3.58;;
25637;SDS011;13496;51.040;13.680;2023-05-20T07:03:51;4.32;;;3.95;;
25637;SDS011;13496;51.040;13.680;2023-05-20T07:08:54;4.15;;;3.85;;
25637;SDS011;13496;51.040;13.680;2023-05-20T07:13:56;3.92;;;3.63;;
25637;SDS011;13496;51.040;13.680;2023-05-20T07:19:00;4.40;;;4.10;;
25637;SDS011;13496;51.040;13.680;2023-05-20T07:24:01;4.55;;;3.58;;
25637;SDS011;13496;51.040;13.680;2023-05-20T07:29:03;4.03;;;3.72;;
25637;SDS011;13496;51.040;13.680;2023-05-20T07:34:06;4.15;;;3.80;;
25637;SDS011;13496;51.040;13.680;2023-05-20T07:39:07;4.20;;;3.90;;
25637;SDS011;13496;51.040;13.680;2023-05-20T07:44:11;3.60;;;3.30;;
25637;SDS011;13496;51.040;13.680;2023-05-20T07:49:16;3.80;;;3.50;;
25637;SDS011;13496;51.040;13.680;2023-05-20T07:54:20;4.03;;;3.72;;
25637;SDS011;13496;51.040;13.680;2023-05-20T07:59:24;4.10;;;3.80;;
25637;SDS011;13496;51.040;13.680;2023-05-20T08:04:27;3.90;;;3.60;;
25637;SDS011;13496;51.040;13.680;2023-05-20T08:09:30;4.38;;;4.00;;
25637;SDS011;13496;51.040;13.680;2023-05-20T08:14:33;4.20;;;3.80;;
25637;SDS011;13496;51.040;13.680;2023-05-20T08:19:35;4.28;;;3.97;;
25637;SDS011;13496;51.040;13.680;2023-05-20T08:24:37;3.92;;;3.63;;
25637;SDS011;13496;51.040;13.680;2023-05-20T08:29:39;4.18;;;3.88;;
25637;SDS011;13496;51.040;13.680;2023-05-20T08:34:41;4.68;;;4.28;;
25637;SDS011;13496;51.040;13.680;2023-05-20T08:39:43;4.40;;;4.00;;
25637;SDS011;13496;51.040;13.680;2023-05-20T08:44:47;4.40;;;4.00;;
25637;SDS011;13496;51.040;13.680;2023-05-20T08:49:50;3.97;;;3.58;;
25637;SDS011;13496;51.040;13.680;2023-05-20T08:54:51;4.55;;;4.15;;
25637;SDS011;13496;51.040;13.680;2023-05-20T08:59:54;4.40;;;4.05;;
25637;SDS011;13496;51.040;13.680;2023-05-20T09:04:56;4.03;;;3.72;;
25637;SDS011;13496;51.040;13.680;2023-05-20T09:09:58;4.28;;;3.88;;
25637;SDS011;13496;51.040;13.680;2023-05-20T09:15:00;4.65;;;4.25;;
25637;SDS011;13496;51.040;13.680;2023-05-20T09:20:06;4.63;;;4.22;;
25637;SDS011;13496;51.040;13.680;2023-05-20T09:25:09;4.80;;;4.40;;
25637;SDS011;13496;51.040;13.680;2023-05-20T09:30:12;4.53;;;4.13;;
25637;SDS011;13496;51.040;13.680;2023-05-20T09:35:14;4.22;;;3.90;;
25637;SDS011;13496;51.040;13.680;2023-05-20T09:40:16;4.30;;;4.00;;
25637;SDS011;13496;51.040;13.680;2023-05-20T09:45:21;4.13;;;3.83;;
25637;SDS011;13496;51.040;13.680;2023-05-20T09:50:23;4.68;;;4.32;;
25637;SDS011;13496;51.040;13.680;2023-05-20T09:55:26;4.65;;;4.25;;
25637;SDS011;13496;51.040;13.680;2023-05-20T10:00:28;4.25;;;3.95;;
25637;SDS011;13496;51.040;13.680;2023-05-20T10:05:31;4.43;;;4.03;;
25637;SDS011;13496;51.040;13.680;2023-05-20T10:10:43;5.03;;;4.63;;
25637;SDS011;13496;51.040;13.680;2023-05-20T10:21:00;5.57;;;5.07;;
25637;SDS011;13496;51.040;13.680;2023-05-20T10:26:04;4.80;;;4.30;;
25637;SDS011;13496;51.040;13.680;2023-05-20T10:31:22;4.93;;;4.43;;
25637;SDS011;13496;51.040;13.680;2023-05-20T10:36:25;5.10;;;4.68;;
25637;SDS011;13496;51.040;13.680;2023-05-20T10:41:28;5.13;;;4.72;;
25637;SDS011;13496;51.040;13.680;2023-05-20T10:46:32;4.70;;;4.30;;
25637;SDS011;13496;51.040;13.680;2023-05-20T10:51:35;5.10;;;4.70;;
25637;SDS011;13496;51.040;13.680;2023-05-20T10:56:37;5.20;;;4.63;;
25637;SDS011;13496;51.040;13.680;2023-05-20T11:01:39;5.60;;;5.10;;
25637;SDS011;13496;51.040;13.680;2023-05-20T11:06:49;5.93;;;5.10;;
25637;SDS011;13496;51.040;13.680;2023-05-20T11:11:52;6.05;;;4.95;;
25637;SDS011;13496;51.040;13.680;2023-05-20T11:16:58;5.63;;;5.05;;
25637;SDS011;13496;51.040;13.680;2023-05-20T11:22:00;5.68;;;4.82;;
25637;SDS011;13496;51.040;13.680;2023-05-20T11:27:02;5.07;;;4.57;;
25637;SDS011;13496;51.040;13.680;2023-05-20T11:32:04;5.47;;;4.97;;
25637;SDS011;13496;51.040;13.680;2023-05-20T11:37:08;5.00;;;4.50;;
25637;SDS011;13496;51.040;13.680;2023-05-20T11:42:13;5.10;;;4.70;;
25637;SDS011;13496;51.040;13.680;2023-05-20T11:47:23;4.60;;;4.25;;
25637;SDS011;13496;51.040;13.680;2023-05-20T11:52:28;5.05;;;4.65;;
25637;SDS011;13496;51.040;13.680;2023-05-20T11:57:29;5.07;;;4.57;;
25637;SDS011;13496;51.040;13.680;2023-05-20T12:02:31;4.93;;;4.43;;
25637;SDS011;13496;51.040;13.680;2023-05-20T12:07:33;5.80;;;5.32;;
25637;SDS011;13496;51.040;13.680;2023-05-20T12:12:35;5.47;;;4.97;;
25637;SDS011;13496;51.040;13.680;2023-05-20T12:17:44;6.38;;;5.78;;
25637;SDS011;13496;51.040;13.680;2023-05-20T12:22:47;6.00;;;5.40;;
25637;SDS011;13496;51.040;13.680;2023-05-20T12:27:50;5.53;;;4.97;;
25637;SDS011;13496;51.040;13.680;2023-05-20T12:32:51;5.60;;;5.10;;
25637;SDS011;13496;51.040;13.680;2023-05-20T12:37:54;6.65;;;5.88;;
25637;SDS011;13496;51.040;13.680;2023-05-20T12:42:55;5.72;;;5.22;;
25637;SDS011;13496;51.040;13.680;2023-05-20T12:47:58;20.98;;;7.15;;
25637;SDS011;13496;51.040;13.680;2023-05-20T12:53:00;39.53;;;10.07;;
25637;SDS011;13496;51.040;13.680;2023-05-20T12:58:02;33.13;;;9.20;;
25637;SDS011;13496;51.040;13.680;2023-05-20T13:03:03;29.27;;;9.15;;
25637;SDS011;13496;51.040;13.680;2023-05-20T13:08:05;25.83;;;8.52;;
25637;SDS011;13496;51.040;13.680;2023-05-20T13:13:09;22.85;;;9.15;;
25637;SDS011;13496;51.040;13.680;2023-05-20T13:18:10;24.25;;;8.45;;
25637;SDS011;13496;51.040;13.680;2023-05-20T13:23:12;17.45;;;8.25;;
25637;SDS011;13496;51.040;13.680;2023-05-20T13:28:14;16.00;;;8.00;;
25637;SDS011;13496;51.040;13.680;2023-05-20T13:33:19;19.73;;;7.90;;
25637;SDS011;13496;51.040;13.680;2023-05-20T13:38:21;20.15;;;7.65;;
25637;SDS011;13496;51.040;13.680;2023-05-20T13:43:22;18.98;;;7.53;;
25637;SDS011;13496;51.040;13.680;2023-05-20T13:48:24;16.92;;;7.15;;
25637;SDS011;13496;51.040;13.680;2023-05-20T13:53:26;13.75;;;7.63;;
25637;SDS011;13496;51.040;13.680;2023-05-20T13:58:28;13.07;;;6.97;;
25637;SDS011;13496;51.040;13.680;2023-05-20T14:03:30;17.17;;;7.75;;
25637;SDS011;13496;51.040;13.680;2023-05-20T14:08:33;10.55;;;6.63;;
25637;SDS011;13496;51.040;13.680;2023-05-20T14:13:35;12.55;;;7.30;;
25637;SDS011;13496;51.040;13.680;2023-05-20T14:18:36;15.05;;;7.35;;
25637;SDS011;13496;51.040;13.680;2023-05-20T14:23:39;9.95;;;6.80;;
25637;SDS011;13496;51.040;13.680;2023-05-20T14:28:44;12.40;;;6.78;;
25637;SDS011;13496;51.040;13.680;2023-05-20T14:33:46;13.30;;;7.38;;
25637;SDS011;13496;51.040;13.680;2023-05-20T14:38:48;16.20;;;7.15;;
25637;SDS011;13496;51.040;13.680;2023-05-20T14:43:49;11.35;;;7.82;;
25637;SDS011;13496;51.040;13.680;2023-05-20T14:48:51;9.85;;;6.47;;
25637;SDS011;13496;51.040;13.680;2023-05-20T14:53:53;9.88;;;6.90;;
25637;SDS011;13496;51.040;13.680;2023-05-20T14:58:54;8.40;;;6.25;;
25637;SDS011;13496;51.040;13.680;2023-05-20T15:03:56;8.30;;;7.00;;
25637;SDS011;13496;51.040;13.680;2023-05-20T15:08:58;8.23;;;6.63;;
25637;SDS011;13496;51.040;13.680;2023-05-20T15:13:59;8.15;;;6.32;;
25637;SDS011;13496;51.040;13.680;2023-05-20T15:19:01;8.48;;;6.35;;
25637;SDS011;13496;51.040;13.680;2023-05-20T15:24:03;9.02;;;6.55;;
25637;SDS011;13496;51.040;13.680;2023-05-20T15:29:05;10.25;;;6.88;;
25637;SDS011;13496;51.040;13.680;2023-05-20T15:34:07;8.95;;;6.22;;
25637;SDS011;13496;51.040;13.680;2023-05-20T15:39:08;9.63;;;7.10;;
25637;SDS011;13496;51.040;13.680;2023-05-20T15:44:10;7.05;;;6.30;;
25637;SDS011;13496;51.040;13.680;2023-05-20T15:49:12;8.63;;;6.57;;
25637;SDS011;13496;51.040;13.680;2023-05-20T15:54:13;7.57;;;6.05;;
25637;SDS011;13496;51.040;13.680;2023-05-20T15:59:15;7.90;;;6.55;;
25637;SDS011;13496;51.040;13.680;2023-05-20T16:04:17;8.38;;;6.43;;
25637;SDS011;13496;51.040;13.680;2023-05-20T16:09:19;8.10;;;6.88;;
25637;SDS011;13496;51.040;13.680;2023-05-20T16:14:21;7.32;;;5.78;;
25637;SDS011;13496;51.040;13.680;2023-05-20T16:19:22;9.48;;;6.35;;
25637;SDS011;13496;51.040;13.680;2023-05-20T16:24:24;9.30;;;6.60;;
25637;SDS011;13496;51.040;13.680;2023-05-20T16:29:26;7.20;;;5.85;;
25637;SDS011;13496;51.040;13.680;2023-05-20T16:34:28;6.93;;;6.22;;
25637;SDS011;13496;51.040;13.680;2023-05-20T16:39:29;8.30;;;6.65;;
25637;SDS011;13496;51.040;13.680;2023-05-20T16:44:31;7.28;;;6.00;;
25637;SDS011;13496;51.040;13.680;2023-05-20T16:49:38;6.40;;;5.88;;
25637;SDS011;13496;51.040;13.680;2023-05-20T16:54:40;6.80;;;6.10;;
25637;SDS011;13496;51.040;13.680;2023-05-20T16:59:42;6.55;;;5.93;;
25637;SDS011;13496;51.040;13.680;2023-05-20T17:04:43;6.65;;;6.05;;
25637;SDS011;13496;51.040;13.680;2023-05-20T17:09:45;6.95;;;6.28;;
25637;SDS011;13496;51.040;13.680;2023-05-20T17:14:47;6.35;;;5.75;;
25637;SDS011;13496;51.040;13.680;2023-05-20T17:19:48;6.10;;;5.45;;
25637;SDS011;13496;51.040;13.680;2023-05-20T17:24:50;6.70;;;5.97;;
25637;SDS011;13496;51.040;13.680;2023-05-20T17:29:52;6.78;;;6.03;;
25637;SDS011;13496;51.040;13.680;2023-05-20T17:34:54;10.45;;;6.63;;
25637;SDS011;13496;51.040;13.680;2023-05-20T17:39:55;7.03;;;6.25;;
25637;SDS011;13496;51.040;13.680;2023-05-20T17:44:57;6.82;;;6.03;;
25637;SDS011;13496;51.040;13.680;2023-05-20T17:49:59;6.63;;;5.93;;
25637;SDS011;13496;51.040;13.680;2023-05-20T17:55:02;7.45;;;6.65;;
25637;SDS011;13496;51.040;13.680;2023-05-20T18:00:05;7.28;;;5.75;;
25637;SDS011;13496;51.040;13.680;2023-05-20T18:05:09;6.97;;;5.88;;
25637;SDS011;13496;51.040;13.680;2023-05-20T18:10:12;7.03;;;6.32;;
25637;SDS011;13496;51.040;13.680;2023-05-20T18:15:14;6.53;;;5.95;;
25637;SDS011;13496;51.040;13.680;2023-05-20T18:20:18;6.65;;;6.05;;
25637;SDS011;13496;51.040;13.680;2023-05-20T18:25:20;7.55;;;6.85;;
25637;SDS011;13496;51.040;13.680;2023-05-20T18:30:22;6.35;;;5.75;;
25637;SDS011;13496;51.040;13.680;2023-05-20T18:35:23;6.22;;;5.63;;
25637;SDS011;13496;51.040;13.680;2023-05-20T18:40:25;6.90;;;6.07;;
25637;SDS011;13496;51.040;13.680;2023-05-20T18:45:28;7.60;;;5.82;;
25637;SDS011;13496;51.040;13.680;2023-05-20T18:50:30;6.30;;;5.70;;
25637;SDS011;13496;51.040;13.680;2023-05-20T18:55:32;6.72;;;6.13;;
25637;SDS011;13496;51.040;13.680;2023-05-20T19:00:33;7.32;;;5.78;;
25637;SDS011;13496;51.040;13.680;2023-05-20T19:05:35;6.72;;;5.93;;
25637;SDS011;13496;51.040;13.680;2023-05-20T19:10:37;6.00;;;5.40;;
25637;SDS011;13496;51.040;13.680;2023-05-20T19:15:38;6.53;;;5.82;;
25637;SDS011;13496;51.040;13.680;2023-05-20T19:20:40;6.72;;;5.88;;
25637;SDS011;13496;51.040;13.680;2023-05-20T19:25:42;6.95;;;6.25;;
25637;SDS011;13496;51.040;13.680;2023-05-20T19:30:44;6.78;;;5.90;;
25637;SDS011;13496;51.040;13.680;2023-05-20T19:35:46;6.47;;;5.78;;
25637;SDS011;13496;51.040;13.680;2023-05-20T19:40:48;6.70;;;6.05;;
25637;SDS011;13496;51.040;13.680;2023-05-20T19:45:49;6.32;;;5.72;;
25637;SDS011;13496;51.040;13.680;2023-05-20T19:50:51;6.72;;;6.03;;
25637;SDS011;13496;51.040;13.680;2023-05-20T19:55:53;6.03;;;5.45;;
25637;SDS011;13496;51.040;13.680;2023-05-20T20:00:55;5.72;;;5.25;;
25637;SDS011;13496;51.040;13.680;2023-05-20T20:05:56;6.25;;;5.60;;
25637;SDS011;13496;51.040;13.680;2023-05-20T20:10:58;6.30;;;5.80;;
25637;SDS011;13496;51.040;13.680;2023-05-20T20:16:00;6.35;;;5.75;;
25637;SDS011;13496;51.040;13.680;2023-05-20T20:21:01;6.38;;;5.80;;
25637;SDS011;13496;51.040;13.680;2023-05-20T20:26:06;6.25;;;5.63;;
25637;SDS011;13496;51.040;13.680;2023-05-20T20:31:08;6.18;;;5.57;;
25637;SDS011;13496;51.040;13.680;2023-05-20T20:36:09;6.32;;;5.82;;
25637;SDS011;13496;51.040;13.680;2023-05-20T20:41:11;6.22;;;5.63;;
25637;SDS011;13496;51.040;13.680;2023-05-20T20:46:16;6.35;;;5.75;;
25637;SDS011;13496;51.040;13.680;2023-05-20T20:51:18;5.70;;;5.20;;
25637;SDS011;13496;51.040;13.680;2023-05-20T20:56:20;5.93;;;5.32;;
25637;SDS011;13496;51.040;13.680;2023-05-20T21:01:21;6.18;;;5.68;;
25637;SDS011;13496;51.040;13.680;2023-05-20T21:06:23;5.68;;;5.18;;
25637;SDS011;13496;51.040;13.680;2023-05-20T21:11:25;6.47;;;5.88;;
25637;SDS011;13496;51.040;13.680;2023-05-20T21:16:28;5.90;;;5.40;;
25637;SDS011;13496;51.040;13.680;2023-05-20T21:21:29;6.03;;;5.43;;
25637;SDS011;13496;51.040;13.680;2023-05-20T21:26:31;6.10;;;5.50;;
25637;SDS011;13496;51.040;13.680;2023-05-20T21:31:33;5.57;;;5.07;;
25637;SDS011;13496;51.040;13.680;2023-05-20T21:36:35;6.25;;;5.45;;
25637;SDS011;13496;51.040;13.680;2023-05-20T21:41:37;6.28;;;5.78;;
25637;SDS011;13496;51.040;13.680;2023-05-20T21:46:38;5.65;;;5.10;;
25637;SDS011;13496;51.040;13.680;2023-05-20T21:51:40;6.30;;;5.75;;
25637;SDS011;13496;51.040;13.680;2023-05-20T21:56:42;5.40;;;4.97;;
25637;SDS011;13496;51.040;13.680;2023-05-20T22:01:43;6.18;;;5.57;;
25637;SDS011;13496;51.040;13.680;2023-05-20T22:06:45;6.65;;;5.97;;
25637;SDS011;13496;51.040;13.680;2023-05-20T22:11:47;6.68;;;6.07;;
25637;SDS011;13496;51.040;13.680;2023-05-20T22:16:49;6.35;;;5.82;;
25637;SDS011;13496;51.040;13.680;2023-05-20T22:21:50;5.70;;;5.20;;
25637;SDS011;13496;51.040;13.680;2023-05-20T22:26:52;6.43;;;5.90;;
25637;SDS011;13496;51.040;13.680;2023-05-20T22:31:54;6.80;;;6.30;;
25637;SDS011;13496;51.040;13.680;2023-05-20T22:36:55;5.88;;;5.38;;
25637;SDS011;13496;51.040;13.680;2023-05-20T22:41:58;6.72;;;5.93;;
25637;SDS011;13496;51.040;13.680;2023-05-20T22:46:59;6.22;;;5.72;;
25637;SDS011;13496;51.040;13.680;2023-05-20T22:52:01;6.40;;;5.90;;
25637;SDS011;13496;51.040;13.680;2023-05-20T22:57:03;5.95;;;5.43;;
25637;SDS011;13496;51.040;13.680;2023-05-20T23:02:05;6.15;;;5.63;;
25637;SDS011;13496;51.040;13.680;2023-05-20T23:07:08;6.55;;;6.05;;
25637;SDS011;13496;51.040;13.680;2023-05-20T23:12:09;6.18;;;5.57;;
25637;SDS011;13496;51.040;13.680;2023-05-20T23:17:11;6.35;;;5.75;;
25637;SDS011;13496;51.040;13.680;2023-05-20T23:22:13;6.53;;;5.90;;
25637;SDS011;13496;51.040;13.680;2023-05-20T23:27:15;6.53;;;5.97;;
25637;SDS011;13496;51.040;13.680;2023-05-20T23:32:16;5.97;;;5.47;;
25637;SDS011;13496;51.040;13.680;2023-05-20T23:37:18;6.78;;;6.18;;
25637;SDS011;13496;51.040;13.680;2023-05-20T23:42:20;6.55;;;5.95;;
25637;SDS011;13496;51.040;13.680;2023-05-20T23:47:22;6.32;;;5.82;;
25637;SDS011;13496;51.040;13.680;2023-05-20T23:52:26;6.55;;;5.93;;
25637;SDS011;13496;51.040;13.680;2023-05-20T23:57:28;6.45;;;5.85;;
